Time;durP1;ratioP1;P1;durP2;ratioP2;P2;SDS_P1;SDS_P2;PMS_P1;PMS_P2;Temp;Humidity;BMP_temperature;BMP_pressure;BME280_temperature;BME280_humidity;BME280_pressure;Samples;Min_cycle;Max_cycle;Signal;HPM_P1;HPM_P2
2022/10/11 00:01:44;;;;;;;;;;;11.60;92.90;;;;;;5086117;28;20274;-68
2022/10/11 00:04:10;;;;;;;;;;;11.60;92.90;;;;;;5084947;28;19989;-68
2022/10/11 00:06:37;;;;;;;;;;;11.60;92.90;;;;;;5081748;28;19924;-68
2022/10/11 00:09:03;;;;;;;;;;;11.60;92.90;;;;;;5055803;28;19931;-68
2022/10/11 00:11:29;;;;;;;;;;;11.60;92.90;;;;;;5084552;28;19922;-68
2022/10/11 00:13:54;;;;;;;;;;;11.60;92.90;;;;;;5085486;28;19916;-68
2022/10/11 00:16:19;;;;;;;;;;;11.50;92.90;;;;;;5082884;28;20434;-68
2022/10/11 00:18:45;;;;;;;;;;;11.50;92.90;;;;;;5086350;28;19920;-68
2022/10/11 00:21:12;;;;;;;;;;;11.50;92.90;;;;;;5084289;28;20400;-68
2022/10/11 00:23:38;;;;;;;;;;;11.50;92.90;;;;;;5084532;28;19927;-68
2022/10/11 00:26:05;;;;;;;;;;;11.50;92.90;;;;;;5084050;28;19916;-68
2022/10/11 00:28:30;;;;;;;;;;;11.50;92.90;;;;;;5084970;28;20510;-68
2022/10/11 00:30:56;;;;;;;;;;;11.50;92.90;;;;;;5081912;28;19912;-68
2022/10/11 00:33:21;;;;;;;;;;;11.50;92.90;;;;;;5081584;28;19915;-68
2022/10/11 00:35:47;;;;;;;;;;;11.40;92.90;;;;;;5075539;28;19920;-68
2022/10/11 00:38:13;;;;;;;;;;;11.40;92.90;;;;;;5085616;28;19920;-68
2022/10/11 00:40:39;;;;;;;;;;;11.40;92.90;;;;;;5083124;28;20665;-68
2022/10/11 00:43:12;;;;;;;;;;;11.40;92.80;;;;;;5082314;28;20364;-68
2022/10/11 00:45:37;;;;;;;;;;;11.40;92.90;;;;;;5083867;28;19916;-68
2022/10/11 00:48:07;;;;;;;;;;;11.40;92.90;;;;;;5086216;28;19919;-69
2022/10/11 00:50:33;;;;;;;;;;;11.30;92.80;;;;;;5083130;28;19908;-68
2022/10/11 00:53:01;;;;;;;;;;;11.30;92.80;;;;;;5086120;28;19919;-68
2022/10/11 00:55:30;;;;;;;;;;;11.40;92.80;;;;;;5085266;28;20033;-68
2022/10/11 00:57:56;;;;;;;;;;;11.30;92.90;;;;;;5082833;28;19966;-68
2022/10/11 01:00:22;;;;;;;;;;;11.30;92.80;;;;;;5083644;28;19923;-68
2022/10/11 01:02:47;;;;;;;;;;;11.30;92.80;;;;;;5079019;28;19920;-68
2022/10/11 01:05:14;;;;;;;;;;;11.30;92.80;;;;;;5082762;28;19923;-68
2022/10/11 01:07:40;;;;;;;;;;;11.30;92.90;;;;;;5081654;28;19916;-68
2022/10/11 01:10:06;;;;;;;;;;;11.30;92.80;;;;;;5079441;28;19918;-68
2022/10/11 01:12:32;;;;;;;;;;;11.30;92.80;;;;;;5082235;28;19916;-68
2022/10/11 01:14:57;;;;;;;;;;;11.20;92.80;;;;;;5085202;28;19956;-68
2022/10/11 01:17:41;;;;;;;;;;;11.20;92.80;;;;;;5080437;28;20736;-68
2022/10/11 01:20:06;;;;;;;;;;;11.20;92.80;;;;;;5083406;28;20010;-68
2022/10/11 01:22:32;;;;;;;;;;;11.20;92.80;;;;;;5080885;28;20667;-68
2022/10/11 01:25:16;;;;;;;;;;;11.20;92.80;;;;;;5083460;28;19947;-68
2022/10/11 01:27:44;;;;;;;;;;;11.20;92.80;;;;;;5082741;28;19912;-68
2022/10/11 01:30:20;;;;;;;;;;;11.10;92.80;;;;;;5081954;28;19923;-68
2022/10/11 01:32:49;;;;;;;;;;;11.20;92.80;;;;;;5078482;28;19912;-68
2022/10/11 01:35:25;;;;;;;;;;;11.10;92.80;;;;;;5085473;28;19912;-68
2022/10/11 01:37:56;;;;;;;;;;;11.10;92.80;;;;;;5080699;28;19970;-68
2022/10/11 01:40:30;;;;;;;;;;;11.10;92.80;;;;;;5080467;28;20367;-68
2022/10/11 01:42:55;;;;;;;;;;;11.10;92.80;;;;;;5081234;28;20585;-68
2022/10/11 01:45:22;;;;;;;;;;;11.10;92.80;;;;;;5085128;28;19918;-68
2022/10/11 01:47:59;;;;;;;;;;;11.10;92.80;;;;;;5080405;28;19927;-68
2022/10/11 01:50:34;;;;;;;;;;;11.10;92.80;;;;;;5065009;28;19923;-70
2022/10/11 01:53:05;;;;;;;;;;;11.00;92.80;;;;;;5078588;28;19937;-70
2022/10/11 01:55:37;;;;;;;;;;;11.00;92.80;;;;;;5085350;28;20584;-70
2022/10/11 01:58:09;;;;;;;;;;;11.00;92.80;;;;;;5081978;28;19922;-70
2022/10/11 02:00:48;;;;;;;;;;;11.00;92.80;;;;;;5080253;28;19916;-70
2022/10/11 02:03:36;;;;;;;;;;;11.00;92.80;;;;;;5077034;28;20483;-70
2022/10/11 02:06:08;;;;;;;;;;;11.00;92.80;;;;;;5068731;28;20192;-70
2022/10/11 02:08:59;;;;;;;;;;;11.00;92.80;;;;;;5080459;28;19912;-70
2022/10/11 02:11:27;;;;;;;;;;;11.00;92.70;;;;;;5079828;28;19998;-70
2022/10/11 02:13:56;;;;;;;;;;;10.90;92.70;;;;;;5081161;28;19912;-70
2022/10/11 02:16:25;;;;;;;;;;;10.90;92.70;;;;;;5083791;28;19915;-70
2022/10/11 02:18:51;;;;;;;;;;;10.90;92.70;;;;;;5081996;28;19959;-70
2022/10/11 02:21:19;;;;;;;;;;;10.90;92.70;;;;;;5080147;28;19916;-70
2022/10/11 02:23:48;;;;;;;;;;;10.90;92.70;;;;;;5078185;28;19912;-70
2022/10/11 02:26:13;;;;;;;;;;;10.90;92.70;;;;;;5082205;28;19948;-70
2022/10/11 02:28:41;;;;;;;;;;;10.90;92.70;;;;;;5080570;28;19958;-70
2022/10/11 02:31:07;;;;;;;;;;;10.90;92.70;;;;;;5081499;28;19916;-70
2022/10/11 02:33:36;;;;;;;;;;;10.90;92.70;;;;;;5080844;28;19919;-70
2022/10/11 02:36:04;;;;;;;;;;;10.90;92.70;;;;;;5077354;28;19916;-70
2022/10/11 02:38:35;;;;;;;;;;;10.80;92.70;;;;;;5080719;28;19946;-70
2022/10/11 02:41:08;;;;;;;;;;;10.80;92.70;;;;;;5076489;28;20332;-70
2022/10/11 02:43:39;;;;;;;;;;;10.80;92.70;;;;;;5082847;28;19912;-69
2022/10/11 02:46:05;;;;;;;;;;;10.80;92.70;;;;;;5081819;28;19916;-70
2022/10/11 02:48:32;;;;;;;;;;;10.70;92.70;;;;;;5083701;28;19961;-70
2022/10/11 02:50:57;;;;;;;;;;;10.80;92.70;;;;;;5080831;28;19920;-70
2022/10/11 02:53:23;;;;;;;;;;;10.80;92.70;;;;;;5082701;28;20644;-70
2022/10/11 02:55:50;;;;;;;;;;;10.70;92.70;;;;;;5063343;28;20677;-70
2022/10/11 02:58:16;;;;;;;;;;;10.70;92.70;;;;;;5080951;28;20280;-70
2022/10/11 03:00:42;;;;;;;;;;;10.70;92.70;;;;;;5081065;28;19920;-70
2022/10/11 03:03:07;;;;;;;;;;;10.70;92.60;;;;;;5079353;28;19912;-70
2022/10/11 03:05:39;;;;;;;;;;;10.70;92.60;;;;;;5083318;28;19919;-70
2022/10/11 03:08:05;;;;;;;;;;;10.70;92.60;;;;;;5082403;28;19986;-70
2022/10/11 03:10:32;;;;;;;;;;;10.60;92.60;;;;;;5079603;28;19989;-70
2022/10/11 03:12:58;;;;;;;;;;;10.60;92.60;;;;;;5081694;28;19941;-70
2022/10/11 03:15:23;;;;;;;;;;;10.60;92.60;;;;;;5084375;28;19913;-70
2022/10/11 03:17:49;;;;;;;;;;;10.60;92.60;;;;;;5082278;28;19934;-70
2022/10/11 03:20:14;;;;;;;;;;;10.60;92.60;;;;;;5087585;28;19916;-70
2022/10/11 03:22:40;;;;;;;;;;;10.60;92.60;;;;;;5084568;28;19916;-70
2022/10/11 03:25:05;;;;;;;;;;;10.60;92.60;;;;;;5087224;28;19926;-70
2022/10/11 03:27:31;;;;;;;;;;;10.60;92.60;;;;;;5084322;28;19958;-70
2022/10/11 03:29:57;;;;;;;;;;;10.60;92.60;;;;;;5087830;28;20425;-70
2022/10/11 03:32:22;;;;;;;;;;;10.60;92.60;;;;;;5066442;28;19942;-70
2022/10/11 03:34:48;;;;;;;;;;;10.60;92.60;;;;;;5087855;28;19961;-70
2022/10/11 03:37:13;;;;;;;;;;;10.60;92.60;;;;;;5082697;28;20354;-70
2022/10/11 03:39:39;;;;;;;;;;;10.50;92.60;;;;;;5086150;28;19912;-70
2022/10/11 03:42:04;;;;;;;;;;;10.50;92.60;;;;;;5081209;28;20030;-70
2022/10/11 03:44:30;;;;;;;;;;;10.50;92.60;;;;;;5069051;28;19920;-70
2022/10/11 03:46:55;;;;;;;;;;;10.50;92.60;;;;;;5087865;28;20697;-70
2022/10/11 03:49:20;;;;;;;;;;;10.50;92.60;;;;;;5084176;28;19939;-70
2022/10/11 03:51:46;;;;;;;;;;;10.50;92.60;;;;;;5068629;28;19927;-70
2022/10/11 03:54:11;;;;;;;;;;;10.50;92.60;;;;;;5084243;28;20023;-70
2022/10/11 03:56:37;;;;;;;;;;;10.50;92.60;;;;;;5086828;28;20379;-70
2022/10/11 03:59:02;;;;;;;;;;;10.50;92.60;;;;;;5083347;28;19923;-70
2022/10/11 04:01:29;;;;;;;;;;;10.50;92.60;;;;;;5086009;28;19912;-70
2022/10/11 04:03:56;;;;;;;;;;;10.50;92.60;;;;;;5082461;28;19923;-70
2022/10/11 04:06:21;;;;;;;;;;;10.40;92.60;;;;;;5085718;28;19920;-70
2022/10/11 04:08:47;;;;;;;;;;;10.40;92.60;;;;;;5081262;28;19927;-70
2022/10/11 04:11:12;;;;;;;;;;;10.40;92.60;;;;;;5086783;28;19912;-70
2022/10/11 04:13:38;;;;;;;;;;;10.40;92.60;;;;;;5083694;28;19920;-70
2022/10/11 04:16:03;;;;;;;;;;;10.40;92.60;;;;;;5086126;28;19923;-70
2022/10/11 04:18:29;;;;;;;;;;;10.30;92.50;;;;;;5081833;28;19969;-70
2022/10/11 04:20:54;;;;;;;;;;;10.30;92.60;;;;;;5085530;28;19912;-70
2022/10/11 04:23:20;;;;;;;;;;;10.30;92.60;;;;;;5085848;28;19916;-70
2022/10/11 04:25:47;;;;;;;;;;;10.30;92.50;;;;;;5084184;28;19923;-70
2022/10/11 04:28:12;;;;;;;;;;;10.30;92.50;;;;;;5084576;28;19919;-70
2022/10/11 04:30:38;;;;;;;;;;;10.30;92.50;;;;;;5082055;28;19916;-70
2022/10/11 04:33:03;;;;;;;;;;;10.30;92.50;;;;;;5082423;28;20384;-70
2022/10/11 04:35:29;;;;;;;;;;;10.30;92.50;;;;;;5082639;28;20014;-70
2022/10/11 04:37:55;;;;;;;;;;;10.30;92.50;;;;;;5085027;28;19922;-70
2022/10/11 04:40:20;;;;;;;;;;;10.30;92.50;;;;;;5079681;28;20048;-70
2022/10/11 04:42:46;;;;;;;;;;;10.30;92.50;;;;;;5085596;28;20018;-68
2022/10/11 04:45:11;;;;;;;;;;;10.20;92.40;;;;;;5083481;28;20326;-68
2022/10/11 04:47:39;;;;;;;;;;;10.20;92.40;;;;;;5085553;28;19958;-68
2022/10/11 04:50:07;;;;;;;;;;;10.20;92.40;;;;;;5080753;28;20050;-68
2022/10/11 04:52:32;;;;;;;;;;;10.20;92.40;;;;;;5085466;28;20359;-68
2022/10/11 04:54:57;;;;;;;;;;;10.20;92.40;;;;;;5083040;28;19916;-68
2022/10/11 04:57:23;;;;;;;;;;;10.20;92.40;;;;;;5085482;28;19951;-68
2022/10/11 04:59:48;;;;;;;;;;;10.10;92.40;;;;;;5085465;28;19916;-68
2022/10/11 05:02:14;;;;;;;;;;;10.10;92.40;;;;;;5081417;28;19962;-68
2022/10/11 05:04:40;;;;;;;;;;;10.10;92.30;;;;;;5076256;28;19916;-68
2022/10/11 05:07:05;;;;;;;;;;;10.10;92.40;;;;;;5079879;28;20621;-69
2022/10/11 05:09:31;;;;;;;;;;;10.10;92.30;;;;;;5084960;28;20037;-68
2022/10/11 05:11:56;;;;;;;;;;;10.10;92.40;;;;;;5082705;28;19923;-68
2022/10/11 05:14:22;;;;;;;;;;;10.10;92.30;;;;;;5083567;28;20014;-68
2022/10/11 05:16:47;;;;;;;;;;;10.10;92.30;;;;;;5083297;28;19926;-68
2022/10/11 05:19:13;;;;;;;;;;;10.10;92.30;;;;;;5083042;28;19916;-68
2022/10/11 05:21:38;;;;;;;;;;;10.00;92.30;;;;;;5082658;28;20660;-68
2022/10/11 05:24:04;;;;;;;;;;;10.00;92.30;;;;;;5085144;28;19919;-68
2022/10/11 05:26:29;;;;;;;;;;;10.00;92.30;;;;;;5083194;28;19927;-68
2022/10/11 05:28:56;;;;;;;;;;;10.00;92.30;;;;;;5080851;28;19924;-68
2022/10/11 05:31:21;;;;;;;;;;;10.00;92.30;;;;;;5082642;28;19919;-68
2022/10/11 05:33:47;;;;;;;;;;;10.00;92.20;;;;;;5082974;28;19916;-68
2022/10/11 05:36:12;;;;;;;;;;;10.00;92.20;;;;;;5066421;28;19923;-68
2022/10/11 05:38:38;;;;;;;;;;;10.00;92.30;;;;;;5082046;28;19926;-68
2022/10/11 05:41:04;;;;;;;;;;;10.00;92.20;;;;;;5082359;28;20024;-68
2022/10/11 05:43:30;;;;;;;;;;;10.00;92.20;;;;;;5082069;28;20372;-68
2022/10/11 05:45:56;;;;;;;;;;;10.00;92.20;;;;;;5085229;28;19912;-68
2022/10/11 05:48:22;;;;;;;;;;;10.00;92.20;;;;;;5081314;28;19958;-68
2022/10/11 05:50:48;;;;;;;;;;;9.90;92.20;;;;;;5084772;28;19942;-68
2022/10/11 05:53:14;;;;;;;;;;;9.90;92.20;;;;;;5082266;28;20007;-68
2022/10/11 05:55:40;;;;;;;;;;;9.90;92.10;;;;;;5085160;28;19912;-68
2022/10/11 05:58:06;;;;;;;;;;;9.90;92.10;;;;;;5080642;28;19920;-68
2022/10/11 06:00:34;;;;;;;;;;;9.90;92.10;;;;;;5066305;28;20238;-68
2022/10/11 06:02:59;;;;;;;;;;;9.90;92.10;;;;;;5078981;28;19936;-68
2022/10/11 06:05:25;;;;;;;;;;;9.90;92.20;;;;;;5080594;28;20319;-68
2022/10/11 06:07:50;;;;;;;;;;;9.90;92.10;;;;;;5081743;28;19959;-68
2022/10/11 06:10:16;;;;;;;;;;;9.90;92.10;;;;;;5084139;28;19915;-68
2022/10/11 06:12:41;;;;;;;;;;;9.90;92.10;;;;;;5084227;28;20477;-68
2022/10/11 06:15:09;;;;;;;;;;;9.90;92.20;;;;;;5081305;28;19927;-68
2022/10/11 06:17:34;;;;;;;;;;;9.80;92.10;;;;;;5084750;28;19923;-68
2022/10/11 06:20:00;;;;;;;;;;;9.90;92.10;;;;;;5077077;28;20353;-68
2022/10/11 06:22:25;;;;;;;;;;;9.80;92.10;;;;;;5084456;28;20376;-68
2022/10/11 06:24:51;;;;;;;;;;;9.80;92.10;;;;;;5079443;28;19936;-68
2022/10/11 06:27:16;;;;;;;;;;;9.80;92.40;;;;;;5084518;28;20314;-68
2022/10/11 06:29:42;;;;;;;;;;;9.90;92.10;;;;;;5076208;28;19920;-68
2022/10/11 06:32:07;;;;;;;;;;;9.80;92.10;;;;;;5081350;28;20070;-68
2022/10/11 06:34:33;;;;;;;;;;;9.80;92.10;;;;;;5079101;28;19920;-68
2022/10/11 06:36:58;;;;;;;;;;;9.90;92.10;;;;;;5084850;28;19912;-68
2022/10/11 06:39:23;;;;;;;;;;;9.80;92.00;;;;;;5080802;28;19915;-68
2022/10/11 06:41:49;;;;;;;;;;;9.80;92.10;;;;;;5084235;28;20578;-68
2022/10/11 06:44:15;;;;;;;;;;;9.80;92.10;;;;;;5081845;28;19918;-67
2022/10/11 06:46:41;;;;;;;;;;;9.80;92.10;;;;;;5082821;28;19923;-68
2022/10/11 06:49:06;;;;;;;;;;;9.80;92.10;;;;;;5083002;28;19912;-68
2022/10/11 06:51:34;;;;;;;;;;;9.80;92.10;;;;;;5081587;28;19916;-68
2022/10/11 06:54:00;;;;;;;;;;;9.80;92.00;;;;;;5084474;28;19916;-68
2022/10/11 06:56:26;;;;;;;;;;;9.80;92.00;;;;;;5085699;28;19944;-68
2022/10/11 06:58:52;;;;;;;;;;;9.80;92.10;;;;;;5087436;28;20375;-68
2022/10/11 07:01:20;;;;;;;;;;;9.80;92.00;;;;;;5084809;28;19974;-68
2022/10/11 07:03:46;;;;;;;;;;;9.80;92.00;;;;;;5084760;28;19941;-68
2022/10/11 07:06:16;;;;;;;;;;;9.80;92.00;;;;;;5084332;28;20659;-68
2022/10/11 07:08:42;;;;;;;;;;;9.80;92.00;;;;;;5087444;28;20292;-68
2022/10/11 07:11:09;;;;;;;;;;;9.80;92.00;;;;;;5084435;28;19920;-68
2022/10/11 07:13:35;;;;;;;;;;;9.80;92.00;;;;;;5087146;28;19912;-68
2022/10/11 07:16:01;;;;;;;;;;;9.90;92.00;;;;;;5084752;28;19998;-68
2022/10/11 07:18:26;;;;;;;;;;;9.80;92.00;;;;;;5069350;28;20019;-68
2022/10/11 07:20:52;;;;;;;;;;;9.90;92.00;;;;;;5084142;28;19993;-68
2022/10/11 07:23:17;;;;;;;;;;;9.80;92.00;;;;;;5068712;28;19959;-68
2022/10/11 07:25:43;;;;;;;;;;;9.90;92.00;;;;;;5084730;28;19942;-68
2022/10/11 07:28:09;;;;;;;;;;;9.90;92.10;;;;;;5083443;28;19912;-68
2022/10/11 07:30:37;;;;;;;;;;;9.90;92.10;;;;;;5086517;28;19938;-68
2022/10/11 07:33:03;;;;;;;;;;;9.90;92.00;;;;;;5084708;28;19916;-68
2022/10/11 07:35:28;;;;;;;;;;;9.90;92.10;;;;;;5087754;28;19919;-68
2022/10/11 07:37:54;;;;;;;;;;;9.90;92.10;;;;;;5084899;28;20057;-68
2022/10/11 07:40:19;;;;;;;;;;;9.90;92.10;;;;;;5085460;28;19916;-68
2022/10/11 07:42:45;;;;;;;;;;;9.90;92.10;;;;;;5084702;28;20342;-68
2022/10/11 07:45:10;;;;;;;;;;;9.90;92.10;;;;;;5086730;28;19945;-68
2022/10/11 07:47:36;;;;;;;;;;;9.90;92.10;;;;;;5085124;28;19969;-68
2022/10/11 07:50:01;;;;;;;;;;;9.90;92.10;;;;;;5086594;28;19935;-68
2022/10/11 07:52:27;;;;;;;;;;;9.90;92.10;;;;;;5084320;28;19912;-68
2022/10/11 07:54:52;;;;;;;;;;;10.00;92.10;;;;;;5086706;28;19918;-68
2022/10/11 07:57:18;;;;;;;;;;;10.00;92.10;;;;;;5082575;28;20012;-68
2022/10/11 07:59:44;;;;;;;;;;;10.00;92.10;;;;;;5085471;28;19912;-67
2022/10/11 08:02:12;;;;;;;;;;;10.00;92.10;;;;;;5080424;28;19955;-68
2022/10/11 08:04:38;;;;;;;;;;;10.00;92.10;;;;;;5083351;28;19919;-68
2022/10/11 08:07:04;;;;;;;;;;;10.00;92.10;;;;;;5086653;28;19920;-68
2022/10/11 08:09:30;;;;;;;;;;;10.00;92.00;;;;;;5083565;28;19920;-68
2022/10/11 08:11:55;;;;;;;;;;;10.00;92.10;;;;;;5068345;28;19919;-68
2022/10/11 08:14:21;;;;;;;;;;;10.00;92.00;;;;;;5082434;28;19923;-68
2022/10/11 08:16:46;;;;;;;;;;;10.10;92.10;;;;;;5086662;28;20319;-68
2022/10/11 08:19:12;;;;;;;;;;;10.00;92.00;;;;;;5081137;28;20009;-68
2022/10/11 08:21:38;;;;;;;;;;;10.10;92.00;;;;;;5086526;28;19920;-68
2022/10/11 08:24:04;;;;;;;;;;;10.10;92.00;;;;;;5082933;28;20725;-68
2022/10/11 08:26:30;;;;;;;;;;;10.10;92.00;;;;;;5086423;28;20613;-68
2022/10/11 08:28:56;;;;;;;;;;;10.10;92.00;;;;;;5082334;28;19923;-68
2022/10/11 08:31:22;;;;;;;;;;;10.10;91.90;;;;;;5086152;28;19919;-68
2022/10/11 08:33:47;;;;;;;;;;;10.20;92.00;;;;;;5083467;28;19912;-68
2022/10/11 08:36:13;;;;;;;;;;;10.20;91.90;;;;;;5086519;28;19923;-68
2022/10/11 08:38:38;;;;;;;;;;;10.20;91.90;;;;;;5083166;28;19916;-68
2022/10/11 08:41:22;;;;;;;;;;;10.20;91.90;;;;;;5084631;28;19959;-68
2022/10/11 08:43:56;;;;;;;;;;;10.30;92.20;;;;;;5068374;28;19913;-68
2022/10/11 08:46:24;;;;;;;;;;;10.20;91.80;;;;;;5081483;28;19916;-68
2022/10/11 08:48:50;;;;;;;;;;;10.30;91.90;;;;;;5084004;28;19920;-68
2022/10/11 08:51:19;;;;;;;;;;;10.30;91.80;;;;;;5084993;28;19923;-68
2022/10/11 08:53:45;;;;;;;;;;;10.40;91.80;;;;;;5067253;28;19912;-68
2022/10/11 08:56:14;;;;;;;;;;;10.40;91.70;;;;;;5083318;28;19912;-68
2022/10/11 08:58:45;;;;;;;;;;;10.40;91.70;;;;;;5085507;28;19927;-68
2022/10/11 09:01:16;;;;;;;;;;;10.40;91.70;;;;;;5082933;28;19951;-67
2022/10/11 09:03:44;;;;;;;;;;;10.50;91.60;;;;;;5082417;28;19916;-68
2022/10/11 09:06:19;;;;;;;;;;;10.50;91.60;;;;;;5077613;28;19983;-68
2022/10/11 09:09:03;;;;;;;;;;;10.50;91.60;;;;;;5085065;28;19989;-68
2022/10/11 09:11:28;;;;;;;;;;;10.50;91.50;;;;;;5083095;28;19924;-68
2022/10/11 09:13:54;;;;;;;;;;;10.50;91.50;;;;;;5084971;28;19912;-67
2022/10/11 09:16:25;;;;;;;;;;;10.60;91.50;;;;;;5082104;28;19915;-67
2022/10/11 09:19:00;;;;;;;;;;;10.60;91.50;;;;;;5084568;28;19916;-67
2022/10/11 09:21:45;;;;;;;;;;;10.60;91.50;;;;;;5082018;28;19956;-68
2022/10/11 09:24:20;;;;;;;;;;;10.70;91.40;;;;;;5084885;28;19919;-68
2022/10/11 09:26:55;;;;;;;;;;;10.70;91.40;;;;;;5082957;28;19916;-68
2022/10/11 09:29:40;;;;;;;;;;;10.70;91.30;;;;;;5084649;28;19920;-68
2022/10/11 09:32:12;;;;;;;;;;;10.70;91.40;;;;;;5082511;28;19924;-68
2022/10/11 09:34:37;;;;;;;;;;;10.70;91.40;;;;;;5084917;28;19970;-68
2022/10/11 09:37:10;;;;;;;;;;;10.80;91.40;;;;;;5082081;28;20292;-68
2022/10/11 09:39:38;;;;;;;;;;;10.80;91.30;;;;;;5084051;28;19912;-68
2022/10/11 09:42:08;;;;;;;;;;;10.80;91.40;;;;;;5082402;28;19916;-67
2022/10/11 09:44:36;;;;;;;;;;;10.80;91.40;;;;;;5083968;28;19989;-68
2022/10/11 09:47:02;;;;;;;;;;;10.80;91.30;;;;;;5082463;28;19962;-68
2022/10/11 09:49:29;;;;;;;;;;;10.80;91.40;;;;;;5082448;28;20377;-68
2022/10/11 09:51:57;;;;;;;;;;;10.80;91.30;;;;;;5082318;28;19916;-67
2022/10/11 09:54:36;;;;;;;;;;;10.90;91.30;;;;;;5082941;28;19916;-68
2022/10/11 09:57:01;;;;;;;;;;;10.90;91.30;;;;;;5081665;28;19916;-68
2022/10/11 09:59:28;;;;;;;;;;;10.90;91.30;;;;;;5081107;28;19920;-68
2022/10/11 10:02:12;;;;;;;;;;;10.90;91.30;;;;;;5081199;28;19958;-68
2022/10/11 10:04:53;;;;;;;;;;;11.00;91.30;;;;;;5081004;28;19916;-68
2022/10/11 10:07:19;;;;;;;;;;;11.00;91.30;;;;;;5081437;28;19966;-68
2022/10/11 10:09:45;;;;;;;;;;;11.00;91.20;;;;;;5082554;28;19916;-68
2022/10/11 10:12:11;;;;;;;;;;;11.00;91.20;;;;;;5081743;28;19912;-68
2022/10/11 10:14:37;;;;;;;;;;;11.10;91.40;;;;;;5082400;28;20582;-68
2022/10/11 10:17:20;;;;;;;;;;;11.10;91.20;;;;;;5084606;28;19916;-68
2022/10/11 10:19:48;;;;;;;;;;;11.10;91.10;;;;;;5082500;28;20375;-68
2022/10/11 10:22:18;;;;;;;;;;;11.30;91.00;;;;;;5084752;28;19916;-68
2022/10/11 10:24:43;;;;;;;;;;;11.30;90.90;;;;;;5083644;28;19916;-68
2022/10/11 10:27:09;;;;;;;;;;;11.40;90.70;;;;;;5086075;28;20680;-69
2022/10/11 10:29:34;;;;;;;;;;;11.50;90.70;;;;;;5083390;28;20337;-68
2022/10/11 10:32:15;;;;;;;;;;;11.60;90.60;;;;;;5088413;28;19915;-68
2022/10/11 10:34:59;;;;;;;;;;;11.60;90.80;;;;;;5085418;28;19947;-68
2022/10/11 10:37:24;;;;;;;;;;;11.70;91.00;;;;;;5088566;28;20621;-68
2022/10/11 10:39:56;;;;;;;;;;;11.70;90.70;;;;;;5084896;28;19920;-68
2022/10/11 10:42:22;;;;;;;;;;;11.80;90.50;;;;;;5088579;28;20300;-68
2022/10/11 10:44:52;;;;;;;;;;;11.90;90.30;;;;;;5081268;28;19920;-68
2022/10/11 10:47:43;;;;;;;;;;;11.90;90.40;;;;;;5088476;28;19916;-68
2022/10/11 10:50:22;;;;;;;;;;;12.00;90.30;;;;;;5052665;28;20689;-68
2022/10/11 10:52:56;;;;;;;;;;;12.00;90.30;;;;;;5088215;28;19912;-68
2022/10/11 10:55:24;;;;;;;;;;;12.00;90.20;;;;;;5084536;28;20398;-68
2022/10/11 10:58:11;;;;;;;;;;;12.00;90.40;;;;;;5070399;28;19916;-69
2022/10/11 11:00:42;;;;;;;;;;;12.10;90.30;;;;;;5083293;28;20449;-68
2022/10/11 11:03:14;;;;;;;;;;;12.10;90.30;;;;;;5087403;28;19973;-68
2022/10/11 11:05:40;;;;;;;;;;;12.10;90.30;;;;;;5084066;28;20396;-68
2022/10/11 11:08:26;;;;;;;;;;;12.10;90.30;;;;;;5088006;28;19962;-68
2022/10/11 11:10:51;;;;;;;;;;;12.10;90.30;;;;;;5069645;28;19961;-68
2022/10/11 11:13:18;;;;;;;;;;;12.10;90.30;;;;;;5087897;28;19912;-68
2022/10/11 11:16:02;;;;;;;;;;;12.20;90.30;;;;;;5083547;28;19916;-68
2022/10/11 11:18:37;;;;;;;;;;;12.30;90.10;;;;;;5084674;28;19920;-68
2022/10/11 11:21:02;;;;;;;;;;;12.40;89.90;;;;;;5081746;28;19916;-68
2022/10/11 11:23:28;;;;;;;;;;;12.50;89.80;;;;;;5087516;28;20445;-68
2022/10/11 11:26:11;;;;;;;;;;;12.60;89.70;;;;;;5084517;28;19943;-68
2022/10/11 11:29:06;;;;;;;;;;;12.70;89.40;;;;;;5084965;28;19912;-68
2022/10/11 11:31:41;;;;;;;;;;;12.80;89.00;;;;;;5065862;28;19916;-68
2022/10/11 11:34:16;;;;;;;;;;;12.90;88.90;;;;;;5084382;28;20423;-68
2022/10/11 11:36:50;;;;;;;;;;;13.00;88.40;;;;;;5080641;28;19916;-68
2022/10/11 11:39:24;;;;;;;;;;;13.00;88.50;;;;;;5085759;28;19934;-68
2022/10/11 11:41:54;;;;;;;;;;;13.00;88.40;;;;;;5083474;28;20011;-68
2022/10/11 11:44:36;;;;;;;;;;;13.00;88.60;;;;;;5085380;28;20317;-68
2022/10/11 11:47:03;;;;;;;;;;;13.00;88.90;;;;;;5084060;28;19923;-68
2022/10/11 11:49:29;;;;;;;;;;;13.00;89.40;;;;;;5086332;28;20003;-69
2022/10/11 11:51:55;;;;;;;;;;;12.90;89.60;;;;;;5084360;28;19916;-68
2022/10/11 11:54:39;;;;;;;;;;;13.00;89.40;;;;;;5085501;28;19951;-68
2022/10/11 11:57:17;;;;;;;;;;;13.00;89.60;;;;;;5079823;28;19927;-68
2022/10/11 11:59:42;;;;;;;;;;;13.00;89.50;;;;;;5081548;28;20321;-68
2022/10/11 12:02:30;;;;;;;;;;;13.00;89.60;;;;;;5084056;28;19920;-68
2022/10/11 12:04:56;;;;;;;;;;;13.00;89.60;;;;;;5086458;28;20341;-68
2022/10/11 12:07:22;;;;;;;;;;;13.00;89.80;;;;;;5082383;28;19923;-68
2022/10/11 12:09:50;;;;;;;;;;;13.00;89.80;;;;;;5084866;28;19916;-68
2022/10/11 12:12:24;;;;;;;;;;;13.00;89.70;;;;;;5084108;28;20436;-68
2022/10/11 12:14:51;;;;;;;;;;;13.00;89.80;;;;;;5086213;28;19938;-68
2022/10/11 12:17:20;;;;;;;;;;;13.10;89.70;;;;;;5084483;28;20544;-68
2022/10/11 12:20:08;;;;;;;;;;;13.10;89.80;;;;;;5086362;28;19916;-68
2022/10/11 12:22:33;;;;;;;;;;;13.10;90.00;;;;;;5083688;28;19916;-68
2022/10/11 12:25:08;;;;;;;;;;;13.20;89.50;;;;;;5078933;28;19916;-69
2022/10/11 12:27:50;;;;;;;;;;;13.20;89.50;;;;;;5083207;28;19959;-69
2022/10/11 12:30:34;;;;;;;;;;;13.20;89.30;;;;;;5084127;28;19999;-68
2022/10/11 12:33:05;;;;;;;;;;;13.30;89.20;;;;;;5083109;28;20643;-68
2022/10/11 12:35:31;;;;;;;;;;;13.30;89.10;;;;;;5084384;28;20390;-68
2022/10/11 12:38:13;;;;;;;;;;;13.50;88.90;;;;;;5084155;28;19923;-68
2022/10/11 12:40:42;;;;;;;;;;;13.50;88.60;;;;;;5077432;28;19927;-69
2022/10/11 12:43:13;;;;;;;;;;;13.50;88.50;;;;;;5080697;28;20043;-69
2022/10/11 12:45:40;;;;;;;;;;;13.50;88.70;;;;;;5085241;28;19912;-68
2022/10/11 12:48:21;;;;;;;;;;;13.50;89.00;;;;;;5083652;28;19912;-68
2022/10/11 12:50:56;;;;;;;;;;;13.50;89.20;;;;;;5078466;28;19916;-69
2022/10/11 12:53:24;;;;;;;;;;;13.50;89.20;;;;;;5082338;28;20691;-70
2022/10/11 12:55:57;;;;;;;;;;;13.50;89.10;;;;;;5083090;28;19912;-68
2022/10/11 12:58:27;;;;;;;;;;;13.60;89.20;;;;;;5082508;28;19920;-69
2022/10/11 13:00:54;;;;;;;;;;;13.50;89.40;;;;;;5082024;28;19973;-68
2022/10/11 13:03:40;;;;;;;;;;;13.50;89.50;;;;;;5085561;28;19954;-68
2022/10/11 13:06:15;;;;;;;;;;;13.60;89.40;;;;;;5054121;28;19973;-68
2022/10/11 13:08:42;;;;;;;;;;;13.70;89.40;;;;;;5082662;28;19914;-69
2022/10/11 13:11:16;;;;;;;;;;;13.70;89.40;;;;;;5020631;28;19927;-69
2022/10/11 13:13:53;;;;;;;;;;;13.80;89.40;;;;;;5006885;28;19917;-69
2022/10/11 13:16:23;;;;;;;;;;;13.80;89.20;;;;;;5009022;28;19917;-68
2022/10/11 13:18:52;;;;;;;;;;;13.90;89.10;;;;;;5007591;28;19993;-68
2022/10/11 13:21:23;;;;;;;;;;;13.90;89.00;;;;;;5004544;28;19921;-68
2022/10/11 13:23:48;;;;;;;;;;;13.90;88.90;;;;;;5001026;28;19926;-68
2022/10/11 13:26:14;;;;;;;;;;;13.90;88.90;;;;;;5002733;28;20028;-68
2022/10/11 13:28:40;;;;;;;;;;;14.00;89.00;;;;;;5005096;28;19917;-68
2022/10/11 13:31:06;;;;;;;;;;;14.00;89.00;;;;;;5007848;28;19921;-69
2022/10/11 13:33:33;;;;;;;;;;;14.10;89.00;;;;;;5007915;28;19971;-68
2022/10/11 13:36:00;;;;;;;;;;;14.10;89.00;;;;;;5002920;28;19924;-69
2022/10/11 13:38:30;;;;;;;;;;;14.10;89.00;;;;;;5001399;28;19948;-68
2022/10/11 13:40:57;;;;;;;;;;;14.20;89.00;;;;;;5002564;28;19961;-68
2022/10/11 13:43:24;;;;;;;;;;;14.20;89.10;;;;;;5004477;28;19939;-68
2022/10/11 13:45:51;;;;;;;;;;;14.20;89.10;;;;;;5002130;28;20393;-68
2022/10/11 13:48:16;;;;;;;;;;;14.20;89.10;;;;;;5004729;28;19910;-68
2022/10/11 13:50:49;;;;;;;;;;;14.30;89.30;;;;;;4999718;28;19928;-68
2022/10/11 13:53:15;;;;;;;;;;;14.30;89.40;;;;;;4999746;28;20036;-69
2022/10/11 13:55:41;;;;;;;;;;;14.30;89.30;;;;;;5000045;28;20012;-68
2022/10/11 13:58:13;;;;;;;;;;;14.30;89.70;;;;;;5004061;28;19922;-69
2022/10/11 14:00:39;;;;;;;;;;;14.40;89.50;;;;;;5006102;28;19913;-69
2022/10/11 14:03:13;;;;;;;;;;;14.40;89.60;;;;;;5001898;28;19914;-69
2022/10/11 14:05:40;;;;;;;;;;;14.40;89.50;;;;;;5003927;28;20631;-69
2022/10/11 14:08:26;;;;;;;;;;;14.40;89.60;;;;;;5001048;28;20000;-69
2022/10/11 14:10:51;;;;;;;;;;;14.40;89.90;;;;;;5005429;28;19921;-68
2022/10/11 14:13:27;;;;;;;;;;;14.40;90.00;;;;;;5002712;28;19921;-69
2022/10/11 14:16:04;;;;;;;;;;;14.40;90.10;;;;;;5009539;28;20634;-69
2022/10/11 14:18:35;;;;;;;;;;;14.40;90.10;;;;;;5004826;28;19921;-69
2022/10/11 14:21:19;;;;;;;;;;;14.30;90.20;;;;;;5002656;28;19921;-69
2022/10/11 14:23:45;;;;;;;;;;;14.40;90.30;;;;;;4985135;28;19925;-69
2022/10/11 14:26:11;;;;;;;;;;;14.40;90.30;;;;;;4993809;28;19913;-69
2022/10/11 14:28:37;;;;;;;;;;;14.40;90.30;;;;;;4987825;28;19922;-68